createdAt,value
2022-10-02T00:02:24.618Z,10.50
2022-10-02T00:05:30.256Z,10.50
2022-10-02T00:08:26.112Z,10.50
2022-10-02T00:11:20.795Z,10.40
2022-10-02T00:13:57.632Z,10.40
2022-10-02T00:16:36.549Z,10.30
2022-10-02T00:19:03.978Z,10.30
2022-10-02T00:21:52.310Z,10.20
2022-10-02T00:24:24.046Z,10.20
2022-10-02T00:27:00.639Z,10.20
2022-10-02T00:29:56.164Z,10.10
2022-10-02T00:32:37.580Z,10.10
2022-10-02T00:35:39.207Z,10.10
2022-10-02T00:38:18.051Z,10.10
2022-10-02T00:40:56.810Z,10.00
2022-10-02T00:43:48.283Z,10.00
2022-10-02T00:46:50.562Z,10.00
2022-10-02T00:49:41.146Z,10.00
2022-10-02T00:52:54.846Z,9.90
2022-10-02T00:55:43.197Z,9.90
2022-10-02T00:58:40.105Z,9.90
2022-10-02T01:01:18.377Z,9.90
2022-10-02T01:03:53.275Z,9.80
2022-10-02T01:06:23.522Z,9.80
2022-10-02T01:08:51.934Z,9.80
2022-10-02T01:11:20.766Z,9.80
2022-10-02T01:13:48.752Z,9.80
2022-10-02T01:16:16.170Z,9.70
2022-10-02T01:18:46.386Z,9.80
2022-10-02T01:21:24.386Z,9.80
2022-10-02T01:24:05.779Z,9.80
2022-10-02T01:26:32.509Z,9.80
2022-10-02T01:28:59.702Z,9.80
2022-10-02T01:31:26.366Z,9.90
2022-10-02T01:33:53.589Z,9.90
2022-10-02T01:36:21.797Z,9.90
2022-10-02T01:38:49.895Z,9.90
2022-10-02T01:41:16.840Z,9.90
2022-10-02T01:43:50.811Z,9.90
2022-10-02T01:46:29.278Z,9.90
2022-10-02T01:49:26.467Z,9.90
2022-10-02T01:52:20.167Z,9.90
2022-10-02T01:55:03.615Z,9.90
2022-10-02T01:57:30.100Z,9.90
2022-10-02T02:00:08.499Z,10.00
2022-10-02T02:02:44.055Z,9.90
2022-10-02T02:05:30.014Z,9.90
2022-10-02T02:08:17.847Z,10.00
2022-10-02T02:11:11.991Z,10.00
2022-10-02T02:14:14.876Z,10.00
2022-10-02T02:16:53.800Z,10.00
2022-10-02T02:19:48.911Z,9.90
2022-10-02T02:22:24.192Z,9.90
2022-10-02T02:25:09.247Z,10.00
2022-10-02T02:27:42.693Z,10.00
2022-10-02T02:30:12.614Z,10.00
2022-10-02T02:32:46.857Z,10.00
2022-10-02T02:35:26.408Z,10.00
2022-10-02T02:38:00.228Z,10.00
2022-10-02T02:40:29.716Z,10.00
2022-10-02T02:43:12.659Z,10.00
2022-10-02T02:45:47.953Z,10.00
2022-10-02T02:48:25.901Z,10.00
2022-10-02T02:51:12.807Z,10.10
2022-10-02T02:53:59.299Z,10.10
2022-10-02T02:56:28.151Z,10.10
2022-10-02T02:59:15.116Z,10.20
2022-10-02T03:01:42.631Z,10.20
2022-10-02T03:04:14.170Z,10.20
2022-10-02T03:06:51.896Z,10.30
2022-10-02T03:09:21.320Z,10.30
2022-10-02T03:12:10.122Z,10.30
2022-10-02T03:14:55.656Z,10.30
2022-10-02T03:17:33.826Z,10.20
2022-10-02T03:20:33.796Z,10.10
2022-10-02T03:23:17.012Z,10.10
2022-10-02T03:25:53.194Z,10.00
2022-10-02T03:28:53.772Z,9.90
2022-10-02T03:31:18.650Z,9.80
2022-10-02T03:33:47.258Z,9.80
2022-10-02T03:36:16.235Z,9.70
2022-10-02T03:38:44.071Z,9.70
2022-10-02T03:41:10.990Z,9.70
2022-10-02T03:43:39.143Z,9.80
2022-10-02T03:46:06.034Z,9.80
2022-10-02T03:48:33.012Z,9.90
2022-10-02T03:50:59.563Z,10.00
2022-10-02T03:53:31.392Z,10.00
2022-10-02T03:56:07.270Z,10.00
2022-10-02T03:58:37.188Z,10.00
2022-10-02T04:01:25.275Z,10.00
2022-10-02T04:04:09.110Z,10.00
2022-10-02T04:06:36.341Z,9.90
2022-10-02T04:09:09.892Z,9.90
2022-10-02T04:11:41.156Z,9.80
2022-10-02T04:14:20.745Z,9.80
2022-10-02T04:17:16.106Z,9.80
2022-10-02T04:19:48.949Z,9.80
2022-10-02T04:22:33.667Z,9.80
2022-10-02T04:25:10.679Z,9.80
2022-10-02T04:27:42.862Z,9.80
2022-10-02T04:30:16.241Z,9.70
2022-10-02T04:32:42.791Z,9.70
2022-10-02T04:35:37.750Z,9.60
2022-10-02T04:38:31.671Z,9.60
2022-10-02T04:41:23.359Z,9.60
2022-10-02T04:44:04.878Z,9.60
2022-10-02T04:46:55.987Z,9.60
2022-10-02T04:49:38.676Z,9.60
2022-10-02T04:52:24.428Z,9.70
2022-10-02T04:55:32.800Z,9.80
2022-10-02T04:58:21.203Z,9.90
2022-10-02T05:01:18.832Z,9.90
2022-10-02T05:03:51.618Z,10.00
2022-10-02T05:06:45.652Z,10.00
2022-10-02T05:09:45.777Z,10.00
2022-10-02T05:12:57.573Z,10.00
2022-10-02T05:15:58.363Z,9.90
2022-10-02T05:18:45.296Z,9.80
2022-10-02T05:21:25.825Z,9.70
2022-10-02T05:24:30.362Z,9.70
2022-10-02T05:27:29.722Z,9.70
2022-10-02T05:30:05.553Z,9.70
2022-10-02T05:32:41.618Z,9.80
2022-10-02T05:35:54.928Z,9.80
2022-10-02T05:38:43.814Z,9.90
2022-10-02T05:41:44.016Z,10.00
2022-10-02T05:44:21.771Z,10.10
2022-10-02T05:47:13.192Z,10.20
2022-10-02T05:49:44.614Z,10.30
2022-10-02T05:52:20.108Z,10.30
2022-10-02T05:55:20.618Z,10.40
2022-10-02T05:58:32.324Z,10.50
2022-10-02T06:01:06.291Z,10.50
2022-10-02T06:03:48.621Z,10.60
2022-10-02T06:06:31.763Z,10.60
2022-10-02T06:09:18.977Z,10.70
2022-10-02T06:12:09.079Z,10.70
2022-10-02T06:14:59.632Z,10.80
2022-10-02T06:17:30.900Z,10.90
2022-10-02T06:20:35.430Z,10.90
2022-10-02T06:23:07.733Z,10.90
2022-10-02T06:25:43.496Z,11.00
2022-10-02T06:28:17.386Z,11.10
2022-10-02T06:30:52.545Z,11.20
2022-10-02T06:33:28.120Z,11.30
2022-10-02T06:36:23.221Z,11.50
2022-10-02T06:39:15.315Z,11.80
2022-10-02T06:42:07.496Z,12.10
2022-10-02T06:45:03.611Z,12.20
2022-10-02T06:47:40.482Z,12.20
2022-10-02T06:50:27.843Z,12.20
2022-10-02T06:53:36.582Z,12.20
2022-10-02T06:56:11.195Z,12.20
2022-10-02T06:59:11.572Z,12.20
2022-10-02T07:02:14.555Z,12.20
2022-10-02T07:05:08.315Z,12.30
2022-10-02T07:07:55.741Z,12.20
2022-10-02T07:10:34.027Z,12.10
2022-10-02T07:13:26.575Z,12.00
2022-10-02T07:16:11.493Z,12.00
2022-10-02T07:18:46.989Z,12.00
2022-10-02T07:21:35.708Z,12.00
2022-10-02T07:24:33.325Z,11.90
2022-10-02T07:27:19.198Z,11.90
2022-10-02T07:29:58.873Z,11.90
2022-10-02T07:32:46.215Z,11.80
2022-10-02T07:35:33.100Z,11.80
2022-10-02T07:38:43.151Z,11.80
2022-10-02T07:41:20.094Z,11.90
2022-10-02T07:44:24.712Z,12.00
2022-10-02T07:47:29.403Z,12.10
2022-10-02T07:50:29.266Z,12.10
2022-10-02T07:53:25.337Z,12.10
2022-10-02T07:55:54.726Z,12.10
2022-10-02T07:58:46.707Z,12.00
2022-10-02T08:01:20.919Z,12.00
2022-10-02T08:04:17.555Z,12.00
2022-10-02T08:06:46.940Z,12.00
2022-10-02T08:09:31.314Z,12.10
2022-10-02T08:12:09.912Z,12.30
2022-10-02T08:14:41.110Z,12.40
2022-10-02T08:17:16.867Z,12.60
2022-10-02T08:19:47.815Z,12.70
2022-10-02T08:22:39.343Z,12.70
2022-10-02T08:25:19.818Z,12.70
2022-10-02T08:27:59.845Z,12.70
2022-10-02T08:30:26.510Z,12.80
2022-10-02T08:32:54.945Z,12.90
2022-10-02T08:35:22.579Z,13.00
2022-10-02T08:38:50.343Z,13.10
2022-10-02T08:41:37.902Z,13.30
2022-10-02T08:44:36.326Z,13.40
2022-10-02T08:47:37.374Z,13.70
2022-10-02T08:50:37.378Z,13.80
2022-10-02T08:53:25.891Z,14.00
2022-10-02T08:56:26.906Z,14.20
2022-10-02T08:59:20.466Z,14.30
2022-10-02T09:02:14.131Z,14.20
2022-10-02T09:05:01.929Z,14.10
2022-10-02T09:07:50.377Z,14.10
2022-10-02T09:10:46.181Z,14.00
2022-10-02T09:13:52.220Z,13.90
2022-10-02T09:19:41.306Z,13.60
2022-10-02T09:22:42.427Z,13.50
2022-10-02T09:25:08.963Z,13.40
2022-10-02T09:28:05.951Z,13.30
2022-10-02T09:31:19.395Z,13.20
2022-10-02T09:34:23.608Z,13.20
2022-10-02T09:37:13.879Z,13.30
2022-10-02T09:39:59.040Z,13.30
2022-10-02T09:42:44.800Z,13.40
2022-10-02T09:45:43.848Z,13.50
2022-10-02T09:48:40.521Z,13.80
2022-10-02T09:51:37.236Z,14.10
2022-10-02T09:54:24.874Z,14.40
2022-10-02T09:57:11.926Z,14.70
2022-10-02T10:00:08.667Z,14.80
2022-10-02T10:03:03.130Z,15.00
2022-10-02T10:06:06.697Z,15.30
2022-10-02T10:08:52.326Z,15.60
2022-10-02T10:11:37.686Z,15.80
2022-10-02T10:14:22.903Z,15.90
2022-10-02T10:17:39.507Z,15.80
2022-10-02T10:20:13.181Z,15.70
2022-10-02T10:22:51.651Z,15.40
2022-10-02T10:25:50.523Z,15.00
2022-10-02T10:28:29.262Z,14.50
2022-10-02T10:31:31.467Z,14.10
2022-10-02T10:34:23.034Z,13.70
2022-10-02T10:37:16.130Z,13.10
2022-10-02T10:40:10.053Z,12.80
2022-10-02T10:42:56.081Z,12.60
2022-10-02T10:45:48.983Z,12.60
2022-10-02T10:48:31.691Z,12.70
2022-10-02T10:51:14.614Z,12.90
2022-10-02T10:54:12.878Z,13.00
2022-10-02T10:57:04.658Z,12.90
2022-10-02T11:00:11.965Z,12.90
2022-10-02T11:02:54.377Z,13.00
2022-10-02T11:05:45.871Z,13.20
2022-10-02T11:08:49.741Z,13.40
2022-10-02T11:11:34.659Z,13.60
2022-10-02T11:14:13.429Z,13.70
2022-10-02T11:16:56.439Z,13.70
2022-10-02T11:19:46.004Z,13.60
2022-10-02T11:22:34.295Z,13.50
2022-10-02T11:25:28.744Z,13.40
2022-10-02T11:28:05.999Z,13.30
2022-10-02T11:31:04.806Z,13.30
2022-10-02T11:33:44.304Z,13.30
2022-10-02T11:36:42.037Z,13.40
2022-10-02T11:39:27.002Z,13.60
2022-10-02T11:42:33.777Z,13.70
2022-10-02T11:45:26.970Z,13.70
2022-10-02T11:48:24.963Z,13.60
2022-10-02T11:51:17.689Z,13.50
2022-10-02T11:54:03.612Z,13.50
2022-10-02T11:56:45.621Z,13.50
2022-10-02T11:59:30.435Z,13.50
2022-10-02T12:02:28.593Z,13.50
2022-10-02T12:05:35.895Z,13.40
2022-10-02T12:08:19.974Z,13.50
2022-10-02T12:11:25.849Z,13.50
2022-10-02T12:14:17.249Z,13.50
2022-10-02T12:16:44.190Z,13.50
2022-10-02T12:20:02.723Z,13.50
2022-10-02T12:23:16.603Z,13.60
2022-10-02T12:26:09.963Z,13.60
2022-10-02T12:28:56.251Z,13.70
2022-10-02T12:31:56.091Z,13.70
2022-10-02T12:34:48.306Z,13.80
2022-10-02T12:37:29.976Z,13.90
2022-10-02T12:40:17.070Z,13.90
2022-10-02T12:42:46.807Z,14.10
2022-10-02T12:45:43.813Z,14.10
2022-10-02T12:48:30.160Z,14.20
2022-10-02T12:51:25.575Z,14.20
2022-10-02T12:54:08.082Z,14.20
2022-10-02T12:56:57.143Z,14.10
2022-10-02T12:59:49.472Z,14.10
2022-10-02T13:03:04.808Z,14.10
2022-10-02T13:05:35.320Z,14.10
2022-10-02T13:08:11.862Z,14.10
2022-10-02T13:10:57.699Z,14.20
2022-10-02T13:13:52.996Z,14.30
2022-10-02T13:16:58.550Z,14.40
2022-10-02T13:19:46.815Z,14.40
2022-10-02T13:22:25.647Z,14.40
2022-10-02T13:25:35.298Z,14.50
2022-10-02T13:28:13.446Z,14.50
2022-10-02T13:30:54.576Z,14.50
2022-10-02T13:33:34.299Z,14.40
2022-10-02T13:36:12.347Z,14.50
2022-10-02T13:38:58.123Z,14.60
2022-10-02T13:41:51.568Z,14.70
2022-10-02T13:44:33.831Z,14.90
2022-10-02T13:47:40.669Z,15.00
2022-10-02T13:50:17.517Z,15.10
2022-10-02T13:53:06.948Z,15.10
2022-10-02T13:55:42.875Z,15.20
2022-10-02T13:58:37.613Z,15.20
2022-10-02T14:01:17.145Z,15.10
2022-10-02T14:03:52.861Z,15.20
2022-10-02T14:06:40.574Z,15.20
2022-10-02T14:09:17.211Z,15.20
2022-10-02T14:12:15.409Z,15.20
2022-10-02T14:15:03.275Z,15.10
2022-10-02T14:18:11.779Z,15.00
2022-10-02T14:20:53.390Z,14.90
2022-10-02T14:23:51.787Z,14.80
2022-10-02T14:26:56.598Z,14.70
2022-10-02T14:29:46.035Z,14.60
2022-10-02T14:32:32.181Z,14.60
2022-10-02T14:35:19.890Z,14.50
2022-10-02T14:38:15.640Z,14.50
2022-10-02T14:41:02.263Z,14.50
2022-10-02T14:43:47.367Z,14.60
2022-10-02T14:46:37.953Z,14.60
2022-10-02T14:49:20.614Z,14.70
2022-10-02T14:52:08.490Z,14.60
2022-10-02T14:54:48.651Z,14.60
2022-10-02T14:57:50.382Z,14.60
2022-10-02T15:00:20.204Z,14.60
2022-10-02T15:03:15.358Z,14.50
2022-10-02T15:06:18.347Z,14.50
2022-10-02T15:09:22.131Z,14.40
2022-10-02T15:12:00.461Z,14.40
2022-10-02T15:14:34.719Z,14.30
2022-10-02T15:17:24.958Z,14.30
2022-10-02T15:20:20.654Z,14.20
2022-10-02T15:22:59.230Z,14.20
2022-10-02T15:25:49.104Z,14.20
2022-10-02T15:28:48.800Z,14.20
2022-10-02T15:32:05.323Z,14.10
2022-10-02T15:35:00.857Z,14.10
2022-10-02T15:37:27.399Z,14.10
2022-10-02T15:40:26.622Z,14.10
2022-10-02T15:43:30.182Z,14.10
2022-10-02T15:46:03.908Z,14.00
2022-10-02T15:48:46.078Z,14.00
2022-10-02T15:51:34.522Z,14.00
2022-10-02T15:54:25.435Z,13.90
2022-10-02T15:57:10.818Z,13.90
2022-10-02T15:59:46.944Z,13.90
2022-10-02T16:02:29.520Z,13.80
2022-10-02T16:05:16.678Z,13.80
2022-10-02T16:08:07.353Z,13.80
2022-10-02T16:10:51.326Z,13.70
2022-10-02T16:13:46.307Z,13.70
2022-10-02T16:16:37.371Z,13.60
2022-10-02T16:19:42.655Z,13.60
2022-10-02T16:22:27.694Z,13.50
2022-10-02T16:25:16.754Z,13.40
2022-10-02T16:28:10.025Z,13.40
2022-10-02T16:31:14.186Z,13.30
2022-10-02T16:34:11.236Z,13.30
2022-10-02T16:37:09.915Z,13.20
2022-10-02T16:39:55.461Z,13.10
2022-10-02T16:43:12.890Z,13.00
2022-10-02T16:45:57.289Z,13.00
2022-10-02T16:48:53.491Z,12.90
2022-10-02T16:51:48.684Z,12.80
2022-10-02T16:54:18.342Z,12.80
2022-10-02T16:57:03.770Z,12.70
2022-10-02T16:59:44.756Z,12.70
2022-10-02T17:02:49.382Z,12.70
2022-10-02T17:05:35.409Z,12.60
2022-10-02T17:08:18.187Z,12.50
2022-10-02T17:10:44.708Z,12.50
2022-10-02T17:13:31.202Z,12.40
2022-10-02T17:16:48.691Z,12.40
2022-10-02T17:19:21.257Z,12.30
2022-10-02T17:22:03.953Z,11.50
2022-10-02T17:24:52.622Z,12.20
2022-10-02T17:27:34.165Z,12.10
2022-10-02T17:30:09.139Z,12.20
2022-10-02T17:32:46.013Z,12.10
2022-10-02T17:35:29.478Z,12.10
2022-10-02T17:38:13.602Z,12.10
2022-10-02T17:41:09.139Z,12.00
2022-10-02T17:44:11.875Z,12.00
2022-10-02T17:46:56.081Z,12.00
2022-10-02T17:49:35.106Z,11.90
2022-10-02T17:52:39.981Z,11.90
2022-10-02T17:55:53.554Z,11.90
2022-10-02T17:58:45.777Z,11.80
2022-10-02T18:01:25.770Z,11.80
2022-10-02T18:04:07.265Z,11.80
2022-10-02T18:06:46.746Z,11.80
2022-10-02T18:09:34.285Z,11.80
2022-10-02T18:12:32.827Z,11.80
2022-10-02T18:15:37.855Z,11.80
2022-10-02T18:18:16.538Z,11.70
2022-10-02T18:21:17.509Z,11.70
2022-10-02T18:24:12.488Z,11.70
2022-10-02T18:27:08.811Z,11.70
2022-10-02T18:29:48.124Z,11.70
2022-10-02T18:32:37.820Z,11.70
2022-10-02T18:35:28.536Z,11.60
2022-10-02T18:38:20.853Z,11.60
2022-10-02T18:41:13.622Z,11.60
2022-10-02T18:44:16.499Z,11.60
2022-10-02T18:47:11.962Z,11.60
2022-10-02T18:49:50.855Z,11.60
2022-10-02T18:52:46.137Z,11.50
2022-10-02T18:55:28.151Z,11.50
2022-10-02T18:58:04.746Z,11.50
2022-10-02T19:01:04.819Z,11.40
2022-10-02T19:04:07.454Z,11.40
2022-10-02T19:06:54.218Z,11.40
2022-10-02T19:09:28.018Z,11.40
2022-10-02T19:11:57.959Z,11.40
2022-10-02T19:14:42.502Z,11.40
2022-10-02T19:17:22.358Z,11.30
2022-10-02T19:19:49.638Z,11.30
2022-10-02T19:22:20.847Z,11.30
2022-10-02T19:25:04.971Z,11.30
2022-10-02T19:27:36.014Z,11.20
2022-10-02T19:30:06.717Z,11.20
2022-10-02T19:32:43.484Z,11.20
2022-10-02T19:35:17.357Z,11.20
2022-10-02T19:37:47.640Z,11.10
2022-10-02T19:40:23.907Z,11.10
2022-10-02T19:43:09.291Z,11.10
2022-10-02T19:45:42.655Z,11.10
2022-10-02T19:48:11.669Z,11.10
2022-10-02T19:50:51.522Z,11.10
2022-10-02T19:53:31.160Z,11.10
2022-10-02T19:56:00.438Z,11.00
2022-10-02T19:58:39.899Z,11.10
2022-10-02T20:01:14.991Z,11.00
2022-10-02T20:03:44.345Z,11.00
2022-10-02T20:06:16.480Z,11.00
2022-10-02T20:08:46.831Z,11.00
2022-10-02T20:11:16.312Z,11.00
2022-10-02T20:13:55.106Z,11.00
2022-10-02T20:16:44.366Z,11.00
2022-10-02T20:19:16.138Z,10.90
2022-10-02T20:21:47.464Z,10.90
2022-10-02T20:24:41.183Z,10.90
2022-10-02T20:27:17.378Z,10.90
2022-10-02T20:29:55.835Z,10.90
2022-10-02T20:32:43.598Z,10.80
2022-10-02T20:35:34.990Z,10.80
2022-10-02T20:38:20.263Z,10.80
2022-10-02T20:40:53.038Z,10.90
2022-10-02T20:43:33.097Z,10.80
2022-10-02T20:46:35.700Z,10.80
2022-10-02T20:49:20.771Z,10.80
2022-10-02T20:52:23.458Z,10.80
2022-10-02T20:55:10.699Z,10.80
2022-10-02T20:57:59.514Z,10.70
2022-10-02T21:00:28.685Z,10.70
2022-10-02T21:03:10.527Z,10.80
2022-10-02T21:06:11.050Z,10.70
2022-10-02T21:09:15.272Z,10.70
2022-10-02T21:15:41.614Z,10.70
2022-10-02T21:18:38.012Z,10.70
2022-10-02T21:21:42.023Z,10.70
2022-10-02T21:24:42.344Z,10.60
2022-10-02T21:27:30.168Z,10.70
2022-10-02T21:30:16.579Z,10.70
2022-10-02T21:32:49.210Z,10.70
2022-10-02T21:35:36.847Z,10.70
2022-10-02T21:38:51.314Z,10.60
2022-10-02T21:41:19.881Z,10.70
2022-10-02T21:44:08.434Z,10.60
2022-10-02T21:46:41.591Z,10.60
2022-10-02T21:49:37.891Z,10.60
2022-10-02T21:52:16.416Z,10.50
2022-10-02T21:55:02.550Z,10.50
2022-10-02T21:58:03.532Z,10.50
2022-10-02T22:00:31.850Z,10.40
2022-10-02T22:03:22.610Z,10.40
2022-10-02T22:06:14.476Z,10.40
2022-10-02T22:09:09.543Z,10.40
2022-10-02T22:12:04.259Z,10.40
2022-10-02T22:14:35.692Z,10.40
2022-10-02T22:17:16.027Z,10.40
2022-10-02T22:20:14.246Z,10.40
2022-10-02T22:22:59.187Z,10.30
2022-10-02T22:25:43.528Z,10.30
2022-10-02T22:28:21.301Z,10.30
2022-10-02T22:30:57.009Z,10.30
2022-10-02T22:33:34.732Z,10.30
2022-10-02T22:36:13.795Z,10.40
2022-10-02T22:38:59.663Z,10.40
2022-10-02T22:41:51.801Z,10.30
2022-10-02T22:44:25.519Z,10.40
2022-10-02T22:46:58.159Z,10.30
2022-10-02T22:49:41.920Z,10.30
2022-10-02T22:52:38.142Z,10.30
2022-10-02T22:55:19.139Z,10.20
2022-10-02T22:58:12.969Z,10.20
2022-10-02T23:01:00.594Z,10.20
2022-10-02T23:04:03.614Z,10.20
2022-10-02T23:06:52.774Z,10.20
2022-10-02T23:09:26.084Z,10.20
2022-10-02T23:12:07.568Z,10.20
2022-10-02T23:14:44.190Z,10.20
2022-10-02T23:17:21.526Z,10.20
2022-10-02T23:20:03.048Z,10.20
2022-10-02T23:22:34.931Z,10.20
2022-10-02T23:25:22.391Z,10.20
2022-10-02T23:28:07.865Z,10.20
2022-10-02T23:30:41.061Z,10.20
2022-10-02T23:33:18.963Z,10.20
2022-10-02T23:36:07.244Z,10.20
2022-10-02T23:38:51.516Z,10.20
2022-10-02T23:41:47.289Z,10.20
2022-10-02T23:47:44.161Z,10.20
2022-10-02T23:50:22.230Z,10.20
2022-10-02T23:53:20.986Z,10.20
2022-10-02T23:56:08.298Z,10.20
2022-10-02T23:59:03.318Z,10.20
